UAL777 KROC-KORD
Flight info
| Callsign | UAL777 |
|---|---|
| Flight time | 1h 23m |
| Altitude | 34000 |
| Route | XEROX8 BURST RAAKK Q436 KAYYS WYNDE3 |
| Aircraft | A320/M-VGDW/C |
Departure
| Time | 2026-04-16 23:55 |
|---|---|
| Airport | Frederick Douglass Greater Rochester International Airport (KROC) |
Arrival
| Time | 2026-04-17 01:18 |
|---|---|
| Airport | Chicago O'Hare International Airport (KORD) |
| Time | Latitude | Longitude | Altitude | Speed | Heading |
|---|---|---|---|---|---|
| 2026-04-16 23:22 | 43.12663 | -77.66736 | 551 ft | 0 kts | 120° |
| 2026-04-16 23:45 | 43.12674 | -77.66761 | 550 ft | 4 kts | 120° |
| 2026-04-16 23:45 | 43.12686 | -77.66790 | 552 ft | 4 kts | 139° |
| 2026-04-16 23:45 | 43.12705 | -77.66793 | 550 ft | 4 kts | 213° |
| 2026-04-16 23:46 | 43.12725 | -77.66772 | 550 ft | 1 kts | 221° |
| 2026-04-16 23:46 | 43.12740 | -77.66753 | 550 ft | 1 kts | 221° |
| 2026-04-16 23:46 | 43.12741 | -77.66753 | 550 ft | 0 kts | 221° |
| 2026-04-16 23:48 | 43.12733 | -77.66762 | 550 ft | 3 kts | 221° |
| 2026-04-16 23:49 | 43.12714 | -77.66785 | 557 ft | 3 kts | 221° |
| 2026-04-16 23:49 | 43.12697 | -77.66805 | 556 ft | 4 kts | 221° |
| 2026-04-16 23:49 | 43.12669 | -77.66835 | 550 ft | 6 kts | 214° |
| 2026-04-16 23:49 | 43.12634 | -77.66854 | 556 ft | 5 kts | 187° |
| 2026-04-16 23:50 | 43.12603 | -77.66849 | 550 ft | 4 kts | 172° |
| 2026-04-16 23:50 | 43.12573 | -77.66844 | 550 ft | 5 kts | 172° |
| 2026-04-16 23:50 | 43.12539 | -77.66854 | 558 ft | 5 kts | 207° |
| 2026-04-16 23:50 | 43.12519 | -77.66884 | 550 ft | 4 kts | 239° |
| 2026-04-16 23:51 | 43.12512 | -77.66930 | 550 ft | 6 kts | 266° |
| 2026-04-16 23:51 | 43.12510 | -77.66983 | 550 ft | 5 kts | 268° |
| 2026-04-16 23:51 | 43.12509 | -77.67026 | 550 ft | 4 kts | 268° |
| 2026-04-16 23:51 | 43.12508 | -77.67072 | 550 ft | 2 kts | 268° |
| 2026-04-16 23:52 | 43.12508 | -77.67087 | 550 ft | 2 kts | 271° |
| 2026-04-16 23:52 | 43.12509 | -77.67098 | 550 ft | 0 kts | 278° |
| 2026-04-16 23:53 | 43.12509 | -77.67101 | 550 ft | 2 kts | 278° |
| 2026-04-16 23:54 | 43.12527 | -77.67153 | 549 ft | 8 kts | 301° |
| 2026-04-16 23:54 | 43.12539 | -77.67216 | 549 ft | 6 kts | 244° |
| 2026-04-16 23:54 | 43.12501 | -77.67249 | 549 ft | 7 kts | 213° |
| 2026-04-16 23:54 | 43.12348 | -77.67381 | 553 ft | 59 kts | 212° |
| 2026-04-16 23:55 | 43.11815 | -77.67825 | 556 ft | 118 kts | 212° |
| 2026-04-16 23:55 | 43.10978 | -77.68530 | 581 ft | 160 kts | 213° |
| 2026-04-16 23:55 | 43.10059 | -77.69332 | 1180 ft | 158 kts | 215° |
| 2026-04-16 23:55 | 43.09141 | -77.70158 | 1832 ft | 158 kts | 215° |
| 2026-04-16 23:56 | 43.08191 | -77.70954 | 2399 ft | 162 kts | 204° |
| 2026-04-16 23:56 | 43.07009 | -77.71233 | 2622 ft | 185 kts | 189° |
| 2026-04-16 23:56 | 43.05654 | -77.71511 | 2808 ft | 208 kts | 194° |
| 2026-04-16 23:56 | 43.04166 | -77.71899 | 3095 ft | 229 kts | 194° |
| 2026-04-16 23:57 | 43.02523 | -77.72339 | 3476 ft | 250 kts | 194° |
| 2026-04-16 23:57 | 43.00805 | -77.72790 | 4239 ft | 257 kts | 194° |
| 2026-04-16 23:57 | 42.99034 | -77.73243 | 5088 ft | 260 kts | 194° |
| 2026-04-16 23:57 | 42.97251 | -77.73684 | 5979 ft | 261 kts | 194° |
| 2026-04-16 23:58 | 42.95459 | -77.74120 | 6858 ft | 262 kts | 195° |
| 2026-04-16 23:58 | 42.93658 | -77.74556 | 7672 ft | 264 kts | 195° |
| 2026-04-16 23:58 | 42.91838 | -77.74996 | 8440 ft | 267 kts | 195° |
| 2026-04-16 23:58 | 42.89994 | -77.75443 | 9185 ft | 270 kts | 195° |
| 2026-04-16 23:59 | 42.88131 | -77.75896 | 9883 ft | 274 kts | 195° |
| 2026-04-16 23:59 | 42.86201 | -77.76366 | 10398 ft | 286 kts | 196° |
| 2026-04-16 23:59 | 42.84192 | -77.76867 | 10555 ft | 309 kts | 196° |
| 2026-04-16 23:59 | 42.82001 | -77.77415 | 10688 ft | 331 kts | 195° |
| 2026-04-17 00:00 | 42.79666 | -77.77985 | 10873 ft | 349 kts | 195° |
| 2026-04-17 00:00 | 42.77219 | -77.78568 | 11409 ft | 356 kts | 195° |
| 2026-04-17 00:00 | 42.74795 | -77.79139 | 12032 ft | 359 kts | 195° |
| 2026-04-17 00:00 | 42.72292 | -77.79729 | 12696 ft | 361 kts | 196° |
| 2026-04-17 00:01 | 42.69834 | -77.80312 | 13318 ft | 364 kts | 196° |
| 2026-04-17 00:01 | 42.67326 | -77.80912 | 13918 ft | 367 kts | 196° |
| 2026-04-17 00:01 | 42.64806 | -77.81519 | 14506 ft | 370 kts | 196° |
| 2026-04-17 00:01 | 42.62230 | -77.82141 | 15082 ft | 372 kts | 196° |
| 2026-04-17 00:02 | 42.59701 | -77.82750 | 15638 ft | 375 kts | 197° |
| 2026-04-17 00:02 | 42.57207 | -77.83688 | 16169 ft | 370 kts | 208° |
| 2026-04-17 00:02 | 42.55001 | -77.85407 | 16726 ft | 365 kts | 221° |
| 2026-04-17 00:02 | 42.53203 | -77.87801 | 17286 ft | 362 kts | 234° |
| 2026-04-17 00:03 | 42.51911 | -77.90714 | 17848 ft | 362 kts | 247° |
| 2026-04-17 00:03 | 42.51187 | -77.93992 | 18411 ft | 365 kts | 258° |
| 2026-04-17 00:03 | 42.50804 | -77.97410 | 18944 ft | 368 kts | 259° |
| 2026-04-17 00:03 | 42.50421 | -78.00843 | 19469 ft | 370 kts | 259° |
| 2026-04-17 00:04 | 42.50029 | -78.04308 | 19969 ft | 373 kts | 259° |
| 2026-04-17 00:04 | 42.49763 | -78.06652 | 20285 ft | 375 kts | 259° |
| 2026-04-17 00:04 | 42.49235 | -78.11299 | 20854 ft | 378 kts | 259° |
| 2026-04-17 00:04 | 42.48973 | -78.13636 | 21123 ft | 380 kts | 258° |
| 2026-04-17 00:05 | 42.48571 | -78.17226 | 21513 ft | 382 kts | 258° |
| 2026-04-17 00:05 | 42.48170 | -78.20795 | 21895 ft | 384 kts | 258° |
| 2026-04-17 00:05 | 42.47770 | -78.24335 | 22271 ft | 386 kts | 258° |
| 2026-04-17 00:05 | 42.47358 | -78.27943 | 22621 ft | 388 kts | 258° |
| 2026-04-17 00:06 | 42.46942 | -78.31566 | 22968 ft | 390 kts | 258° |
| 2026-04-17 00:06 | 42.46523 | -78.35213 | 23307 ft | 393 kts | 258° |
| 2026-04-17 00:06 | 42.46095 | -78.38926 | 23632 ft | 395 kts | 258° |
| 2026-04-17 00:06 | 42.45676 | -78.42563 | 23929 ft | 398 kts | 258° |
| 2026-04-17 00:07 | 42.45244 | -78.46300 | 24079 ft | 405 kts | 258° |
| 2026-04-17 00:07 | 42.44805 | -78.50091 | 24254 ft | 410 kts | 258° |
| 2026-04-17 00:07 | 42.44361 | -78.53922 | 24526 ft | 413 kts | 258° |
| 2026-04-17 00:07 | 42.43913 | -78.57773 | 24850 ft | 414 kts | 258° |
| 2026-04-17 00:08 | 42.43464 | -78.61631 | 25163 ft | 416 kts | 258° |
| 2026-04-17 00:08 | 42.43011 | -78.65495 | 25587 ft | 415 kts | 258° |
| 2026-04-17 00:08 | 42.42557 | -78.69350 | 26055 ft | 413 kts | 258° |
| 2026-04-17 00:08 | 42.42106 | -78.73181 | 26508 ft | 411 kts | 258° |
| 2026-04-17 00:09 | 42.41654 | -78.76995 | 26957 ft | 410 kts | 258° |
| 2026-04-17 00:09 | 42.41203 | -78.80793 | 27417 ft | 408 kts | 257° |
| 2026-04-17 00:09 | 42.40751 | -78.84570 | 27861 ft | 406 kts | 257° |
| 2026-04-17 00:09 | 42.40301 | -78.88336 | 28301 ft | 405 kts | 258° |
| 2026-04-17 00:10 | 42.40081 | -78.92146 | 28722 ft | 408 kts | 266° |
| 2026-04-17 00:10 | 42.40289 | -78.95993 | 29112 ft | 410 kts | 270° |
| 2026-04-17 00:10 | 42.40552 | -78.99838 | 29525 ft | 410 kts | 270° |
| 2026-04-17 00:10 | 42.40810 | -79.03668 | 29941 ft | 408 kts | 269° |
| 2026-04-17 00:11 | 42.41065 | -79.07490 | 30350 ft | 407 kts | 269° |
| 2026-04-17 00:11 | 42.41319 | -79.11295 | 30760 ft | 406 kts | 269° |
| 2026-04-17 00:11 | 42.41569 | -79.15087 | 31164 ft | 404 kts | 269° |
| 2026-04-17 00:11 | 42.41814 | -79.18871 | 31590 ft | 403 kts | 269° |
| 2026-04-17 00:12 | 42.42057 | -79.22637 | 32020 ft | 401 kts | 269° |
| 2026-04-17 00:12 | 42.42296 | -79.26387 | 32421 ft | 399 kts | 269° |
| 2026-04-17 00:12 | 42.42531 | -79.30125 | 32827 ft | 398 kts | 269° |
| 2026-04-17 00:12 | 42.42766 | -79.33843 | 33238 ft | 396 kts | 269° |
| 2026-04-17 00:13 | 42.43001 | -79.37551 | 33621 ft | 395 kts | 268° |
| 2026-04-17 00:13 | 42.43238 | -79.41255 | 33867 ft | 395 kts | 268° |
| 2026-04-17 00:13 | 42.43473 | -79.44966 | 33923 ft | 399 kts | 268° |
| 2026-04-17 00:14 | 42.43941 | -79.52589 | 33926 ft | 413 kts | 268° |
| 2026-04-17 00:14 | 42.44419 | -79.60375 | 34117 ft | 416 kts | 269° |
| 2026-04-17 00:14 | 42.44663 | -79.64238 | 34642 ft | 408 kts | 269° |
| 2026-04-17 00:15 | 42.44901 | -79.68046 | 35055 ft | 405 kts | 268° |
| 2026-04-17 00:15 | 42.45134 | -79.71844 | 35332 ft | 405 kts | 268° |
| 2026-04-17 00:15 | 42.45361 | -79.75638 | 35582 ft | 404 kts | 268° |
| 2026-04-17 00:15 | 42.45585 | -79.79437 | 35759 ft | 406 kts | 268° |
| 2026-04-17 00:16 | 42.45807 | -79.83262 | 35896 ft | 408 kts | 269° |
| 2026-04-17 00:16 | 42.46258 | -79.91000 | 35925 ft | 415 kts | 269° |
| 2026-04-17 00:17 | 42.46716 | -79.98787 | 35924 ft | 415 kts | 269° |
| 2026-04-17 00:17 | 42.47160 | -80.06578 | 35925 ft | 416 kts | 269° |
| 2026-04-17 00:18 | 42.47603 | -80.14396 | 35924 ft | 416 kts | 269° |
| 2026-04-17 00:18 | 42.48050 | -80.22221 | 35927 ft | 417 kts | 269° |
| 2026-04-17 00:19 | 42.48488 | -80.30058 | 35927 ft | 417 kts | 269° |
| 2026-04-17 00:19 | 42.48914 | -80.37895 | 35929 ft | 417 kts | 269° |
| 2026-04-17 00:20 | 42.49335 | -80.45744 | 35934 ft | 418 kts | 269° |
| 2026-04-17 00:20 | 42.49755 | -80.53589 | 35936 ft | 418 kts | 269° |
| 2026-04-17 00:21 | 42.50170 | -80.61449 | 35932 ft | 418 kts | 269° |
| 2026-04-17 00:21 | 42.50578 | -80.69310 | 35933 ft | 418 kts | 268° |
| 2026-04-17 00:22 | 42.50972 | -80.81099 | 35932 ft | 418 kts | 267° |
| 2026-04-17 00:22 | 42.51181 | -80.88977 | 35935 ft | 418 kts | 267° |
| 2026-04-17 00:23 | 42.51411 | -80.96849 | 35938 ft | 418 kts | 267° |
| 2026-04-17 00:23 | 42.51646 | -81.04733 | 35939 ft | 419 kts | 267° |
| 2026-04-17 00:24 | 42.51873 | -81.12636 | 35942 ft | 419 kts | 267° |
| 2026-04-17 00:24 | 42.52090 | -81.20530 | 35939 ft | 419 kts | 267° |
| 2026-04-17 00:25 | 42.52437 | -81.28430 | 35938 ft | 424 kts | 274° |
| 2026-04-17 00:25 | 42.53358 | -81.36328 | 35939 ft | 424 kts | 274° |
| 2026-04-17 00:26 | 42.54270 | -81.44222 | 35940 ft | 424 kts | 274° |
| 2026-04-17 00:26 | 42.55167 | -81.52125 | 35942 ft | 424 kts | 274° |
| 2026-04-17 00:27 | 42.56057 | -81.60044 | 35941 ft | 424 kts | 274° |
| 2026-04-17 00:27 | 42.56944 | -81.67960 | 35945 ft | 424 kts | 274° |
| 2026-04-17 00:28 | 42.57824 | -81.75868 | 35945 ft | 424 kts | 274° |
| 2026-04-17 00:28 | 42.58702 | -81.83784 | 35943 ft | 424 kts | 274° |
| 2026-04-17 00:29 | 42.59565 | -81.91688 | 35943 ft | 424 kts | 273° |
| 2026-04-17 00:29 | 42.60427 | -81.99595 | 35938 ft | 424 kts | 273° |
| 2026-04-17 00:30 | 42.61287 | -82.07513 | 35934 ft | 424 kts | 274° |
| 2026-04-17 00:30 | 42.62142 | -82.15446 | 35930 ft | 425 kts | 274° |
| 2026-04-17 00:31 | 42.62996 | -82.23386 | 35930 ft | 425 kts | 274° |
| 2026-04-17 00:31 | 42.63847 | -82.31332 | 35928 ft | 425 kts | 274° |
| 2026-04-17 00:32 | 42.64681 | -82.39281 | 35930 ft | 426 kts | 274° |
| 2026-04-17 00:32 | 42.65508 | -82.47252 | 35934 ft | 426 kts | 275° |
| 2026-04-17 00:33 | 42.66338 | -82.55221 | 35934 ft | 427 kts | 275° |
| 2026-04-17 00:33 | 42.67168 | -82.63215 | 35930 ft | 427 kts | 275° |
| 2026-04-17 00:34 | 42.67988 | -82.71214 | 35921 ft | 428 kts | 275° |
| 2026-04-17 00:34 | 42.68796 | -82.79218 | 35916 ft | 428 kts | 275° |
| 2026-04-17 00:35 | 42.69600 | -82.87240 | 35912 ft | 428 kts | 275° |
| 2026-04-17 00:35 | 42.70401 | -82.95269 | 35909 ft | 429 kts | 275° |
| 2026-04-17 00:36 | 42.71202 | -83.03311 | 35914 ft | 429 kts | 276° |
| 2026-04-17 00:36 | 42.72116 | -83.11343 | 35921 ft | 430 kts | 277° |
| 2026-04-17 00:37 | 42.73101 | -83.19366 | 35925 ft | 430 kts | 278° |
| 2026-04-17 00:37 | 42.74065 | -83.27397 | 35934 ft | 430 kts | 277° |
| 2026-04-17 00:38 | 42.74994 | -83.35444 | 35941 ft | 430 kts | 277° |
| 2026-04-17 00:38 | 42.75908 | -83.43500 | 35944 ft | 431 kts | 277° |
| 2026-04-17 00:39 | 42.76823 | -83.51557 | 35947 ft | 431 kts | 278° |
| 2026-04-17 00:39 | 42.77737 | -83.59625 | 35949 ft | 431 kts | 278° |
| 2026-04-17 00:40 | 42.78646 | -83.67641 | 35952 ft | 431 kts | 278° |
| 2026-04-17 00:40 | 42.79554 | -83.75715 | 35955 ft | 431 kts | 278° |
| 2026-04-17 00:41 | 42.80455 | -83.83784 | 35957 ft | 431 kts | 278° |
| 2026-04-17 00:41 | 42.81346 | -83.91851 | 35961 ft | 431 kts | 278° |
| 2026-04-17 00:42 | 42.82234 | -83.99933 | 35960 ft | 431 kts | 278° |
| 2026-04-17 00:42 | 42.83112 | -84.08016 | 35960 ft | 431 kts | 278° |
| 2026-04-17 00:43 | 42.83984 | -84.16108 | 35960 ft | 432 kts | 278° |
| 2026-04-17 00:43 | 42.84863 | -84.24206 | 35969 ft | 432 kts | 278° |
| 2026-04-17 00:44 | 42.85592 | -84.31013 | 35972 ft | 433 kts | 278° |
| 2026-04-17 00:44 | 42.86451 | -84.39124 | 35968 ft | 432 kts | 278° |
| 2026-04-17 00:45 | 42.87301 | -84.47234 | 35965 ft | 432 kts | 278° |
| 2026-04-17 00:45 | 42.88142 | -84.55345 | 35738 ft | 431 kts | 276° |
| 2026-04-17 00:46 | 42.88241 | -84.59381 | 35525 ft | 432 kts | 268° |
| 2026-04-17 00:46 | 42.87893 | -84.63459 | 35346 ft | 434 kts | 264° |
| 2026-04-17 00:46 | 42.87469 | -84.67532 | 35176 ft | 435 kts | 264° |
| 2026-04-17 00:46 | 42.87045 | -84.71616 | 35020 ft | 435 kts | 264° |
| 2026-04-17 00:47 | 42.86618 | -84.75714 | 34897 ft | 436 kts | 264° |
| 2026-04-17 00:47 | 42.86190 | -84.79803 | 34772 ft | 436 kts | 264° |
| 2026-04-17 00:47 | 42.85761 | -84.83906 | 34650 ft | 437 kts | 264° |
| 2026-04-17 00:47 | 42.85328 | -84.88009 | 34524 ft | 437 kts | 264° |
| 2026-04-17 00:48 | 42.84893 | -84.92111 | 34400 ft | 438 kts | 264° |
| 2026-04-17 00:48 | 42.84460 | -84.96211 | 34276 ft | 438 kts | 264° |
| 2026-04-17 00:48 | 42.84023 | -85.00329 | 34148 ft | 439 kts | 264° |
| 2026-04-17 00:48 | 42.83586 | -85.04443 | 34019 ft | 439 kts | 264° |
| 2026-04-17 00:49 | 42.82708 | -85.12688 | 33955 ft | 440 kts | 264° |
| 2026-04-17 00:49 | 42.81825 | -85.20938 | 33951 ft | 440 kts | 264° |
| 2026-04-17 00:50 | 42.80932 | -85.29202 | 33952 ft | 441 kts | 264° |
| 2026-04-17 00:50 | 42.80021 | -85.37463 | 33949 ft | 441 kts | 264° |
| 2026-04-17 00:51 | 42.79105 | -85.45717 | 33950 ft | 441 kts | 264° |
| 2026-04-17 00:51 | 42.77915 | -85.53925 | 33960 ft | 443 kts | 258° |
| 2026-04-17 00:52 | 42.76454 | -85.62073 | 33951 ft | 443 kts | 258° |
| 2026-04-17 00:52 | 42.74981 | -85.70228 | 33960 ft | 444 kts | 258° |
| 2026-04-17 00:53 | 42.73511 | -85.78380 | 33960 ft | 444 kts | 258° |
| 2026-04-17 00:53 | 42.72040 | -85.86529 | 33962 ft | 444 kts | 258° |
| 2026-04-17 00:54 | 42.70555 | -85.94679 | 33973 ft | 444 kts | 258° |
| 2026-04-17 00:54 | 42.69070 | -86.02827 | 33968 ft | 444 kts | 258° |
| 2026-04-17 00:55 | 42.67575 | -86.10974 | 33970 ft | 444 kts | 258° |
| 2026-04-17 00:55 | 42.66067 | -86.19118 | 33970 ft | 444 kts | 258° |
| 2026-04-17 00:56 | 42.64548 | -86.27256 | 33972 ft | 444 kts | 258° |
| 2026-04-17 00:56 | 42.63038 | -86.35396 | 33970 ft | 444 kts | 258° |
| 2026-04-17 00:57 | 42.61528 | -86.43544 | 33977 ft | 444 kts | 258° |
| 2026-04-17 00:57 | 42.60768 | -86.47607 | 33740 ft | 445 kts | 258° |
| 2026-04-17 00:57 | 42.59999 | -86.51680 | 33487 ft | 445 kts | 258° |
| 2026-04-17 00:58 | 42.59232 | -86.55746 | 32645 ft | 447 kts | 258° |
| 2026-04-17 00:58 | 42.58462 | -86.59840 | 31715 ft | 449 kts | 258° |
| 2026-04-17 00:58 | 42.57690 | -86.63950 | 30852 ft | 449 kts | 258° |
| 2026-04-17 00:58 | 42.56912 | -86.68049 | 29917 ft | 449 kts | 258° |
| 2026-04-17 00:59 | 42.56110 | -86.72163 | 28850 ft | 454 kts | 256° |
| 2026-04-17 00:59 | 42.55047 | -86.76193 | 28143 ft | 451 kts | 253° |
| 2026-04-17 00:59 | 42.53968 | -86.80143 | 27540 ft | 444 kts | 253° |
| 2026-04-17 00:59 | 42.52903 | -86.84056 | 26898 ft | 439 kts | 253° |
| 2026-04-17 01:00 | 42.51856 | -86.87918 | 26249 ft | 434 kts | 254° |
| 2026-04-17 01:00 | 42.50820 | -86.91742 | 25611 ft | 430 kts | 254° |
| 2026-04-17 01:00 | 42.49791 | -86.95531 | 24999 ft | 426 kts | 254° |
| 2026-04-17 01:00 | 42.48770 | -86.99278 | 24391 ft | 422 kts | 254° |
| 2026-04-17 01:01 | 42.47758 | -87.02985 | 23783 ft | 418 kts | 254° |
| 2026-04-17 01:01 | 42.46755 | -87.06661 | 23185 ft | 413 kts | 254° |
| 2026-04-17 01:01 | 42.45759 | -87.10299 | 22592 ft | 410 kts | 254° |
| 2026-04-17 01:01 | 42.44772 | -87.13902 | 22028 ft | 406 kts | 254° |
| 2026-04-17 01:02 | 42.43795 | -87.17471 | 21479 ft | 402 kts | 254° |
| 2026-04-17 01:02 | 42.42831 | -87.20995 | 20952 ft | 398 kts | 254° |
| 2026-04-17 01:02 | 42.41873 | -87.24504 | 20438 ft | 396 kts | 254° |
| 2026-04-17 01:02 | 42.40920 | -87.27982 | 19935 ft | 393 kts | 253° |
| 2026-04-17 01:03 | 42.39971 | -87.31434 | 19434 ft | 390 kts | 253° |
| 2026-04-17 01:03 | 42.39024 | -87.34859 | 18941 ft | 387 kts | 253° |
| 2026-04-17 01:03 | 42.38081 | -87.38254 | 18443 ft | 384 kts | 253° |
| 2026-04-17 01:03 | 42.37141 | -87.41625 | 17940 ft | 382 kts | 253° |
| 2026-04-17 01:04 | 42.36207 | -87.44970 | 17427 ft | 378 kts | 253° |
| 2026-04-17 01:04 | 42.35286 | -87.48287 | 16933 ft | 375 kts | 253° |
| 2026-04-17 01:04 | 42.34185 | -87.51471 | 16428 ft | 375 kts | 243° |
| 2026-04-17 01:04 | 42.32658 | -87.54336 | 15887 ft | 377 kts | 232° |
| 2026-04-17 01:05 | 42.30741 | -87.56767 | 15323 ft | 380 kts | 221° |
| 2026-04-17 01:05 | 42.28665 | -87.58951 | 14765 ft | 377 kts | 221° |
| 2026-04-17 01:05 | 42.26632 | -87.61095 | 14219 ft | 374 kts | 221° |
| 2026-04-17 01:05 | 42.24588 | -87.63248 | 13671 ft | 371 kts | 221° |
| 2026-04-17 01:06 | 42.22534 | -87.65410 | 13114 ft | 368 kts | 221° |
| 2026-04-17 01:06 | 42.20549 | -87.67494 | 12574 ft | 365 kts | 221° |
| 2026-04-17 01:06 | 42.18412 | -87.69424 | 12020 ft | 366 kts | 212° |
| 2026-04-17 01:06 | 42.16058 | -87.70756 | 11454 ft | 369 kts | 200° |
| 2026-04-17 01:07 | 42.13605 | -87.71613 | 10893 ft | 368 kts | 197° |
| 2026-04-17 01:07 | 42.11149 | -87.72443 | 10615 ft | 357 kts | 197° |
| 2026-04-17 01:07 | 42.08785 | -87.73238 | 10485 ft | 343 kts | 197° |
| 2026-04-17 01:07 | 42.06507 | -87.74011 | 10360 ft | 331 kts | 198° |
| 2026-04-17 01:08 | 42.04316 | -87.74759 | 10234 ft | 319 kts | 198° |
| 2026-04-17 01:08 | 42.02195 | -87.75478 | 10104 ft | 309 kts | 198° |
| 2026-04-17 01:08 | 42.00134 | -87.76181 | 9910 ft | 302 kts | 198° |
| 2026-04-17 01:08 | 41.98090 | -87.76882 | 9449 ft | 306 kts | 198° |
| 2026-04-17 01:09 | 41.96043 | -87.77583 | 9208 ft | 301 kts | 198° |
| 2026-04-17 01:09 | 41.94024 | -87.78273 | 8859 ft | 299 kts | 198° |
| 2026-04-17 01:09 | 41.92027 | -87.79005 | 8512 ft | 295 kts | 205° |
| 2026-04-17 01:09 | 41.90298 | -87.80376 | 8181 ft | 285 kts | 226° |
| 2026-04-17 01:10 | 41.89086 | -87.82403 | 7855 ft | 276 kts | 246° |
| 2026-04-17 01:10 | 41.88491 | -87.84793 | 7517 ft | 268 kts | 264° |
| 2026-04-17 01:10 | 41.88427 | -87.87253 | 6921 ft | 263 kts | 272° |
| 2026-04-17 01:10 | 41.88435 | -87.89697 | 6400 ft | 257 kts | 271° |
| 2026-04-17 01:11 | 41.88435 | -87.92015 | 6266 ft | 239 kts | 272° |
| 2026-04-17 01:11 | 41.88435 | -87.94152 | 6133 ft | 220 kts | 271° |
| 2026-04-17 01:11 | 41.88437 | -87.96155 | 5827 ft | 212 kts | 271° |
| 2026-04-17 01:11 | 41.88442 | -87.98111 | 5387 ft | 209 kts | 272° |
| 2026-04-17 01:12 | 41.88429 | -88.00045 | 5046 ft | 206 kts | 270° |
| 2026-04-17 01:12 | 41.88372 | -88.01992 | 5009 ft | 211 kts | 270° |
| 2026-04-17 01:12 | 41.88301 | -88.03969 | 5008 ft | 212 kts | 270° |
| 2026-04-17 01:12 | 41.88228 | -88.05943 | 5009 ft | 208 kts | 270° |
| 2026-04-17 01:13 | 41.88159 | -88.07820 | 4999 ft | 194 kts | 270° |
| 2026-04-17 01:13 | 41.88104 | -88.09560 | 4936 ft | 181 kts | 274° |
| 2026-04-17 01:13 | 41.88487 | -88.11093 | 4582 ft | 180 kts | 310° |
| 2026-04-17 01:13 | 41.89577 | -88.12009 | 4034 ft | 195 kts | 345° |
| 2026-04-17 01:14 | 41.90960 | -88.12174 | 3570 ft | 206 kts | 355° |
| 2026-04-17 01:14 | 41.92412 | -88.12218 | 3190 ft | 209 kts | 356° |
| 2026-04-17 01:14 | 41.93859 | -88.12208 | 2900 ft | 209 kts | 6° |
| 2026-04-17 01:14 | 41.95181 | -88.11352 | 2488 ft | 220 kts | 43° |
| 2026-04-17 01:15 | 41.96035 | -88.09632 | 2313 ft | 225 kts | 64° |
| 2026-04-17 01:15 | 41.96691 | -88.07736 | 2299 ft | 218 kts | 73° |
| 2026-04-17 01:15 | 41.96864 | -88.05815 | 2332 ft | 195 kts | 91° |
| 2026-04-17 01:15 | 41.96869 | -88.04105 | 2235 ft | 170 kts | 92° |
| 2026-04-17 01:16 | 41.96875 | -88.02590 | 2052 ft | 156 kts | 91° |
| 2026-04-17 01:16 | 41.96877 | -88.01177 | 1869 ft | 147 kts | 89° |
| 2026-04-17 01:16 | 41.96880 | -87.99828 | 1685 ft | 143 kts | 88° |
| 2026-04-17 01:16 | 41.96884 | -87.98504 | 1497 ft | 141 kts | 88° |
| 2026-04-17 01:17 | 41.96888 | -87.97191 | 1311 ft | 140 kts | 88° |
| 2026-04-17 01:17 | 41.96891 | -87.95879 | 1126 ft | 140 kts | 88° |
| 2026-04-17 01:17 | 41.96895 | -87.94573 | 937 ft | 140 kts | 89° |
| 2026-04-17 01:17 | 41.96899 | -87.93266 | 756 ft | 140 kts | 88° |
| 2026-04-17 01:18 | 41.96902 | -87.92010 | 670 ft | 120 kts | 90° |
| 2026-04-17 01:18 | 41.96905 | -87.91124 | 670 ft | 70 kts | 89° |
| 2026-04-17 01:18 | 41.96906 | -87.90686 | 667 ft | 33 kts | 91° |
| 2026-04-17 01:18 | 41.96932 | -87.90404 | 666 ft | 27 kts | 65° |
| 2026-04-17 01:19 | 41.97010 | -87.90207 | 669 ft | 16 kts | 59° |
| 2026-04-17 01:19 | 41.97060 | -87.90134 | 669 ft | 8 kts | 22° |
| 2026-04-17 01:19 | 41.97127 | -87.90134 | 669 ft | 11 kts | 360° |
| 2026-04-17 01:19 | 41.97196 | -87.90139 | 669 ft | 8 kts | 339° |
| 2026-04-17 01:20 | 41.97205 | -87.90211 | 669 ft | 9 kts | 268° |
| 2026-04-17 01:20 | 41.97205 | -87.90319 | 666 ft | 13 kts | 271° |
| 2026-04-17 01:20 | 41.97209 | -87.90451 | 669 ft | 15 kts | 272° |
| 2026-04-17 01:20 | 41.97217 | -87.90607 | 669 ft | 18 kts | 276° |
| 2026-04-17 01:21 | 41.97254 | -87.90763 | 668 ft | 16 kts | 307° |
| 2026-04-17 01:21 | 41.97337 | -87.90880 | 669 ft | 19 kts | 316° |
| 2026-04-17 01:21 | 41.97438 | -87.91004 | 668 ft | 20 kts | 321° |
| 2026-04-17 01:21 | 41.97506 | -87.91049 | 668 ft | 9 kts | 19° |
| 2026-04-17 01:22 | 41.97541 | -87.90969 | 667 ft | 11 kts | 69° |
| 2026-04-17 01:22 | 41.97562 | -87.90906 | 669 ft | 11 kts | 54° |
| 2026-04-17 01:22 | 41.97630 | -87.90875 | 669 ft | 9 kts | 9° |
| 2026-04-17 01:22 | 41.97701 | -87.90859 | 667 ft | 12 kts | 9° |
| 2026-04-17 01:23 | 41.97783 | -87.90841 | 669 ft | 8 kts | 9° |
| 2026-04-17 01:23 | 41.97830 | -87.90829 | 667 ft | 5 kts | 18° |
| 2026-04-17 01:23 | 41.97837 | -87.90792 | 667 ft | 5 kts | 96° |
| 2026-04-17 01:23 | 41.97833 | -87.90754 | 667 ft | 1 kts | 99° |
| 2026-04-17 01:24 | 41.97832 | -87.90750 | 669 ft | 0 kts | 99° |